sensor_id;sensor_type;location;lat;lon;timestamp;P1;durP1;ratioP1;P2;durP2;ratioP2
60847;SDS011;46681;47.696;9.140;2023-07-02T00:00:08;1.10;;;1.10;;
60847;SDS011;46681;47.696;9.140;2023-07-02T00:02:35;1.20;;;1.20;;
60847;SDS011;46681;47.696;9.140;2023-07-02T00:05:06;3.13;;;1.17;;
60847;SDS011;46681;47.696;9.140;2023-07-02T00:07:36;1.40;;;1.30;;
60847;SDS011;46681;47.696;9.140;2023-07-02T00:10:05;1.20;;;1.20;;
60847;SDS011;46681;47.696;9.140;2023-07-02T00:12:33;1.43;;;1.37;;
60847;SDS011;46681;47.696;9.140;2023-07-02T00:14:58;1.57;;;1.47;;
60847;SDS011;46681;47.696;9.140;2023-07-02T00:17:27;1.83;;;1.40;;
60847;SDS011;46681;47.696;9.140;2023-07-02T00:19:55;1.47;;;1.20;;
60847;SDS011;46681;47.696;9.140;2023-07-02T00:22:27;2.20;;;1.30;;
60847;SDS011;46681;47.696;9.140;2023-07-02T00:24:55;1.50;;;1.40;;
60847;SDS011;46681;47.696;9.140;2023-07-02T00:27:28;1.10;;;1.10;;
60847;SDS011;46681;47.696;9.140;2023-07-02T00:29:54;1.97;;;1.70;;
60847;SDS011;46681;47.696;9.140;2023-07-02T00:32:20;1.23;;;1.13;;
60847;SDS011;46681;47.696;9.140;2023-07-02T00:34:45;1.77;;;1.33;;
60847;SDS011;46681;47.696;9.140;2023-07-02T00:37:11;1.67;;;1.43;;
60847;SDS011;46681;47.696;9.140;2023-07-02T00:39:36;1.33;;;1.33;;
60847;SDS011;46681;47.696;9.140;2023-07-02T00:42:02;1.47;;;1.37;;
60847;SDS011;46681;47.696;9.140;2023-07-02T00:44:33;1.57;;;1.40;;
60847;SDS011;46681;47.696;9.140;2023-07-02T00:47:01;1.20;;;1.20;;
60847;SDS011;46681;47.696;9.140;2023-07-02T00:49:29;1.40;;;1.20;;
60847;SDS011;46681;47.696;9.140;2023-07-02T00:51:55;1.50;;;1.40;;
60847;SDS011;46681;47.696;9.140;2023-07-02T00:54:22;1.93;;;1.03;;
60847;SDS011;46681;47.696;9.140;2023-07-02T00:56:49;1.27;;;1.27;;
60847;SDS011;46681;47.696;9.140;2023-07-02T00:59:15;1.10;;;1.10;;
60847;SDS011;46681;47.696;9.140;2023-07-02T01:01:40;1.53;;;1.23;;
60847;SDS011;46681;47.696;9.140;2023-07-02T01:04:06;1.50;;;1.40;;
60847;SDS011;46681;47.696;9.140;2023-07-02T01:06:33;1.20;;;1.20;;
60847;SDS011;46681;47.696;9.140;2023-07-02T01:09:06;1.33;;;1.13;;
60847;SDS011;46681;47.696;9.140;2023-07-02T01:11:45;1.67;;;1.20;;
60847;SDS011;46681;47.696;9.140;2023-07-02T01:14:29;1.27;;;1.13;;
60847;SDS011;46681;47.696;9.140;2023-07-02T01:17:00;1.10;;;1.00;;
60847;SDS011;46681;47.696;9.140;2023-07-02T01:19:47;1.13;;;1.00;;
60847;SDS011;46681;47.696;9.140;2023-07-02T01:22:15;1.00;;;1.00;;
60847;SDS011;46681;47.696;9.140;2023-07-02T01:24:54;1.20;;;1.10;;
60847;SDS011;46681;47.696;9.140;2023-07-02T01:27:20;1.20;;;1.20;;
60847;SDS011;46681;47.696;9.140;2023-07-02T01:29:46;1.00;;;1.00;;
60847;SDS011;46681;47.696;9.140;2023-07-02T01:32:17;2.07;;;1.27;;
60847;SDS011;46681;47.696;9.140;2023-07-02T01:34:43;0.97;;;0.97;;
60847;SDS011;46681;47.696;9.140;2023-07-02T01:37:08;1.07;;;1.07;;
60847;SDS011;46681;47.696;9.140;2023-07-02T01:39:34;1.00;;;1.00;;
60847;SDS011;46681;47.696;9.140;2023-07-02T01:42:10;1.10;;;1.10;;
60847;SDS011;46681;47.696;9.140;2023-07-02T01:44:38;1.10;;;1.00;;
60847;SDS011;46681;47.696;9.140;2023-07-02T01:47:04;1.07;;;1.07;;
60847;SDS011;46681;47.696;9.140;2023-07-02T01:49:30;1.20;;;1.10;;
60847;SDS011;46681;47.696;9.140;2023-07-02T01:51:59;0.90;;;0.90;;
60847;SDS011;46681;47.696;9.140;2023-07-02T01:54:26;1.73;;;1.03;;
60847;SDS011;46681;47.696;9.140;2023-07-02T01:56:52;1.10;;;1.10;;
60847;SDS011;46681;47.696;9.140;2023-07-02T01:59:18;1.10;;;1.10;;
60847;SDS011;46681;47.696;9.140;2023-07-02T02:01:44;1.40;;;1.40;;
60847;SDS011;46681;47.696;9.140;2023-07-02T02:04:09;1.20;;;1.10;;
60847;SDS011;46681;47.696;9.140;2023-07-02T02:06:36;1.00;;;1.00;;
60847;SDS011;46681;47.696;9.140;2023-07-02T02:09:04;0.97;;;0.97;;
60847;SDS011;46681;47.696;9.140;2023-07-02T02:11:30;1.27;;;1.27;;
60847;SDS011;46681;47.696;9.140;2023-07-02T02:14:01;2.13;;;1.13;;
60847;SDS011;46681;47.696;9.140;2023-07-02T02:16:29;1.03;;;1.03;;
60847;SDS011;46681;47.696;9.140;2023-07-02T02:18:55;1.20;;;1.13;;
60847;SDS011;46681;47.696;9.140;2023-07-02T02:21:21;1.13;;;1.13;;
60847;SDS011;46681;47.696;9.140;2023-07-02T02:23:50;1.07;;;1.07;;
60847;SDS011;46681;47.696;9.140;2023-07-02T02:26:17;1.30;;;1.20;;
60847;SDS011;46681;47.696;9.140;2023-07-02T02:28:45;1.40;;;1.23;;
60847;SDS011;46681;47.696;9.140;2023-07-02T02:31:12;1.20;;;1.20;;
60847;SDS011;46681;47.696;9.140;2023-07-02T02:33:39;1.13;;;1.13;;
60847;SDS011;46681;47.696;9.140;2023-07-02T02:36:05;1.20;;;1.20;;
60847;SDS011;46681;47.696;9.140;2023-07-02T02:38:33;2.27;;;1.20;;
60847;SDS011;46681;47.696;9.140;2023-07-02T02:40:59;1.40;;;1.30;;
60847;SDS011;46681;47.696;9.140;2023-07-02T02:43:29;1.10;;;1.10;;
60847;SDS011;46681;47.696;9.140;2023-07-02T02:45:55;1.40;;;1.30;;
60847;SDS011;46681;47.696;9.140;2023-07-02T02:48:21;1.30;;;1.30;;
60847;SDS011;46681;47.696;9.140;2023-07-02T02:50:46;1.77;;;1.30;;
60847;SDS011;46681;47.696;9.140;2023-07-02T02:53:12;1.40;;;1.30;;
60847;SDS011;46681;47.696;9.140;2023-07-02T02:55:37;1.60;;;1.50;;
60847;SDS011;46681;47.696;9.140;2023-07-02T02:58:03;2.60;;;1.77;;
60847;SDS011;46681;47.696;9.140;2023-07-02T03:00:30;1.77;;;1.67;;
60847;SDS011;46681;47.696;9.140;2023-07-02T03:02:57;1.43;;;1.33;;
60847;SDS011;46681;47.696;9.140;2023-07-02T03:05:26;1.93;;;1.83;;
60847;SDS011;46681;47.696;9.140;2023-07-02T03:07:56;1.50;;;1.40;;
60847;SDS011;46681;47.696;9.140;2023-07-02T03:10:24;1.90;;;1.80;;
60847;SDS011;46681;47.696;9.140;2023-07-02T03:12:51;1.60;;;1.50;;
60847;SDS011;46681;47.696;9.140;2023-07-02T03:15:17;2.10;;;2.00;;
60847;SDS011;46681;47.696;9.140;2023-07-02T03:17:44;1.93;;;1.83;;
60847;SDS011;46681;47.696;9.140;2023-07-02T03:20:13;1.70;;;1.60;;
60847;SDS011;46681;47.696;9.140;2023-07-02T03:22:40;2.60;;;2.40;;
60847;SDS011;46681;47.696;9.140;2023-07-02T03:25:08;1.93;;;1.83;;
60847;SDS011;46681;47.696;9.140;2023-07-02T03:27:37;2.10;;;1.90;;
60847;SDS011;46681;47.696;9.140;2023-07-02T03:30:04;2.30;;;2.17;;
60847;SDS011;46681;47.696;9.140;2023-07-02T03:32:35;1.97;;;1.87;;
60847;SDS011;46681;47.696;9.140;2023-07-02T03:35:02;2.10;;;2.00;;
60847;SDS011;46681;47.696;9.140;2023-07-02T03:37:29;1.97;;;1.87;;
60847;SDS011;46681;47.696;9.140;2023-07-02T03:39:56;1.83;;;1.63;;
60847;SDS011;46681;47.696;9.140;2023-07-02T03:42:23;2.00;;;1.90;;
60847;SDS011;46681;47.696;9.140;2023-07-02T03:44:49;2.80;;;2.60;;
60847;SDS011;46681;47.696;9.140;2023-07-02T03:47:16;2.30;;;2.10;;
60847;SDS011;46681;47.696;9.140;2023-07-02T03:49:43;3.67;;;2.67;;
60847;SDS011;46681;47.696;9.140;2023-07-02T03:52:09;2.20;;;2.00;;
60847;SDS011;46681;47.696;9.140;2023-07-02T03:54:36;2.17;;;2.07;;
60847;SDS011;46681;47.696;9.140;2023-07-02T03:57:01;2.90;;;2.60;;
60847;SDS011;46681;47.696;9.140;2023-07-02T03:59:28;2.53;;;2.33;;
60847;SDS011;46681;47.696;9.140;2023-07-02T04:01:54;2.17;;;2.00;;
60847;SDS011;46681;47.696;9.140;2023-07-02T04:04:20;3.07;;;2.87;;
60847;SDS011;46681;47.696;9.140;2023-07-02T04:06:51;3.00;;;2.63;;
60847;SDS011;46681;47.696;9.140;2023-07-02T04:09:16;2.30;;;2.10;;
60847;SDS011;46681;47.696;9.140;2023-07-02T04:11:42;2.60;;;2.47;;
60847;SDS011;46681;47.696;9.140;2023-07-02T04:14:07;2.50;;;2.30;;
60847;SDS011;46681;47.696;9.140;2023-07-02T04:16:33;2.80;;;2.60;;
60847;SDS011;46681;47.696;9.140;2023-07-02T04:18:58;3.37;;;2.43;;
60847;SDS011;46681;47.696;9.140;2023-07-02T04:21:24;2.93;;;2.60;;
60847;SDS011;46681;47.696;9.140;2023-07-02T04:23:49;2.57;;;2.43;;
60847;SDS011;46681;47.696;9.140;2023-07-02T04:26:15;2.57;;;2.40;;
60847;SDS011;46681;47.696;9.140;2023-07-02T04:28:41;3.30;;;2.87;;
60847;SDS011;46681;47.696;9.140;2023-07-02T04:31:06;2.60;;;2.40;;
60847;SDS011;46681;47.696;9.140;2023-07-02T04:33:32;2.50;;;2.33;;
60847;SDS011;46681;47.696;9.140;2023-07-02T04:35:58;3.00;;;2.80;;
60847;SDS011;46681;47.696;9.140;2023-07-02T04:38:25;2.90;;;2.70;;
60847;SDS011;46681;47.696;9.140;2023-07-02T04:40:50;3.13;;;2.67;;
60847;SDS011;46681;47.696;9.140;2023-07-02T04:43:18;3.20;;;2.90;;
60847;SDS011;46681;47.696;9.140;2023-07-02T04:45:43;3.70;;;2.90;;
60847;SDS011;46681;47.696;9.140;2023-07-02T04:48:09;3.67;;;3.00;;
60847;SDS011;46681;47.696;9.140;2023-07-02T04:50:34;2.73;;;2.53;;
60847;SDS011;46681;47.696;9.140;2023-07-02T04:53:00;3.83;;;3.53;;
60847;SDS011;46681;47.696;9.140;2023-07-02T04:55:26;3.83;;;3.40;;
60847;SDS011;46681;47.696;9.140;2023-07-02T04:57:54;4.20;;;3.70;;
60847;SDS011;46681;47.696;9.140;2023-07-02T05:00:19;3.80;;;3.50;;
60847;SDS011;46681;47.696;9.140;2023-07-02T05:02:45;4.00;;;3.53;;
60847;SDS011;46681;47.696;9.140;2023-07-02T05:05:18;3.87;;;3.57;;
60847;SDS011;46681;47.696;9.140;2023-07-02T05:07:44;4.67;;;3.60;;
60847;SDS011;46681;47.696;9.140;2023-07-02T05:10:10;4.40;;;4.00;;
60847;SDS011;46681;47.696;9.140;2023-07-02T05:12:35;5.67;;;3.70;;
60847;SDS011;46681;47.696;9.140;2023-07-02T05:15:01;5.20;;;4.80;;
60847;SDS011;46681;47.696;9.140;2023-07-02T05:17:27;5.07;;;4.57;;
60847;SDS011;46681;47.696;9.140;2023-07-02T05:19:55;7.10;;;4.67;;
60847;SDS011;46681;47.696;9.140;2023-07-02T05:22:20;5.67;;;5.00;;
60847;SDS011;46681;47.696;9.140;2023-07-02T05:24:46;7.93;;;5.77;;
60847;SDS011;46681;47.696;9.140;2023-07-02T05:27:15;5.93;;;5.30;;
60847;SDS011;46681;47.696;9.140;2023-07-02T05:29:41;7.57;;;5.30;;
60847;SDS011;46681;47.696;9.140;2023-07-02T05:32:07;7.73;;;6.00;;
60847;SDS011;46681;47.696;9.140;2023-07-02T05:34:33;7.03;;;5.77;;
60847;SDS011;46681;47.696;9.140;2023-07-02T05:36:59;8.70;;;6.30;;
60847;SDS011;46681;47.696;9.140;2023-07-02T05:39:24;7.33;;;6.13;;
60847;SDS011;46681;47.696;9.140;2023-07-02T05:41:52;8.33;;;6.60;;
60847;SDS011;46681;47.696;9.140;2023-07-02T05:44:17;7.30;;;6.60;;
60847;SDS011;46681;47.696;9.140;2023-07-02T05:46:43;8.33;;;6.80;;
60847;SDS011;46681;47.696;9.140;2023-07-02T05:49:11;8.97;;;7.00;;
60847;SDS011;46681;47.696;9.140;2023-07-02T05:51:38;8.33;;;7.07;;
60847;SDS011;46681;47.696;9.140;2023-07-02T05:54:05;7.60;;;6.67;;
60847;SDS011;46681;47.696;9.140;2023-07-02T05:56:31;8.50;;;6.87;;
60847;SDS011;46681;47.696;9.140;2023-07-02T05:58:57;8.33;;;7.27;;
60847;SDS011;46681;47.696;9.140;2023-07-02T06:01:22;9.23;;;7.53;;
60847;SDS011;46681;47.696;9.140;2023-07-02T06:03:58;9.50;;;8.03;;
60847;SDS011;46681;47.696;9.140;2023-07-02T06:06:24;9.00;;;7.77;;
60847;SDS011;46681;47.696;9.140;2023-07-02T06:08:52;9.57;;;7.63;;
60847;SDS011;46681;47.696;9.140;2023-07-02T06:11:17;10.63;;;8.40;;
60847;SDS011;46681;47.696;9.140;2023-07-02T06:13:43;9.93;;;8.07;;
60847;SDS011;46681;47.696;9.140;2023-07-02T06:16:08;9.73;;;8.33;;
60847;SDS011;46681;47.696;9.140;2023-07-02T06:18:34;11.53;;;9.10;;
60847;SDS011;46681;47.696;9.140;2023-07-02T06:21:00;10.13;;;8.50;;
60847;SDS011;46681;47.696;9.140;2023-07-02T06:23:39;12.57;;;9.53;;
60847;SDS011;46681;47.696;9.140;2023-07-02T06:26:09;9.87;;;8.53;;
60847;SDS011;46681;47.696;9.140;2023-07-02T06:28:38;12.03;;;8.87;;
60847;SDS011;46681;47.696;9.140;2023-07-02T06:31:06;10.63;;;8.63;;
60847;SDS011;46681;47.696;9.140;2023-07-02T06:33:37;10.60;;;8.90;;
60847;SDS011;46681;47.696;9.140;2023-07-02T06:36:06;10.33;;;8.20;;
60847;SDS011;46681;47.696;9.140;2023-07-02T06:38:31;11.30;;;8.77;;
60847;SDS011;46681;47.696;9.140;2023-07-02T06:40:59;11.97;;;8.87;;
60847;SDS011;46681;47.696;9.140;2023-07-02T06:43:29;12.33;;;9.37;;
60847;SDS011;46681;47.696;9.140;2023-07-02T06:45:59;12.23;;;9.47;;
60847;SDS011;46681;47.696;9.140;2023-07-02T06:48:32;11.10;;;9.23;;
60847;SDS011;46681;47.696;9.140;2023-07-02T06:51:00;10.67;;;9.57;;
60847;SDS011;46681;47.696;9.140;2023-07-02T06:53:25;12.83;;;10.33;;
60847;SDS011;46681;47.696;9.140;2023-07-02T06:55:52;12.70;;;9.93;;
60847;SDS011;46681;47.696;9.140;2023-07-02T06:58:20;13.33;;;9.43;;
60847;SDS011;46681;47.696;9.140;2023-07-02T07:00:46;12.23;;;10.27;;
60847;SDS011;46681;47.696;9.140;2023-07-02T07:03:15;12.40;;;10.03;;
60847;SDS011;46681;47.696;9.140;2023-07-02T07:05:44;12.83;;;10.17;;
60847;SDS011;46681;47.696;9.140;2023-07-02T07:08:21;12.63;;;9.83;;
60847;SDS011;46681;47.696;9.140;2023-07-02T07:10:47;11.97;;;10.00;;
60847;SDS011;46681;47.696;9.140;2023-07-02T07:13:12;13.97;;;10.57;;
60847;SDS011;46681;47.696;9.140;2023-07-02T07:15:38;14.13;;;11.23;;
60847;SDS011;46681;47.696;9.140;2023-07-02T07:18:05;13.40;;;9.90;;
60847;SDS011;46681;47.696;9.140;2023-07-02T07:20:38;12.73;;;10.83;;
60847;SDS011;46681;47.696;9.140;2023-07-02T07:23:04;14.60;;;10.87;;
60847;SDS011;46681;47.696;9.140;2023-07-02T07:25:33;13.70;;;10.00;;
60847;SDS011;46681;47.696;9.140;2023-07-02T07:28:02;12.73;;;10.73;;
60847;SDS011;46681;47.696;9.140;2023-07-02T07:30:31;11.93;;;10.40;;
60847;SDS011;46681;47.696;9.140;2023-07-02T07:33:04;14.03;;;10.20;;
60847;SDS011;46681;47.696;9.140;2023-07-02T07:35:34;14.40;;;11.27;;
60847;SDS011;46681;47.696;9.140;2023-07-02T07:38:08;11.87;;;10.57;;
60847;SDS011;46681;47.696;9.140;2023-07-02T07:40:34;13.83;;;11.40;;
60847;SDS011;46681;47.696;9.140;2023-07-02T07:43:00;16.50;;;11.70;;
60847;SDS011;46681;47.696;9.140;2023-07-02T07:45:25;13.80;;;11.10;;
60847;SDS011;46681;47.696;9.140;2023-07-02T07:47:57;16.23;;;12.50;;
60847;SDS011;46681;47.696;9.140;2023-07-02T07:50:23;19.40;;;12.37;;
60847;SDS011;46681;47.696;9.140;2023-07-02T07:52:49;17.30;;;13.73;;
60847;SDS011;46681;47.696;9.140;2023-07-02T07:55:20;21.47;;;14.00;;
60847;SDS011;46681;47.696;9.140;2023-07-02T07:57:47;18.70;;;14.07;;
60847;SDS011;46681;47.696;9.140;2023-07-02T08:00:20;19.40;;;14.17;;
60847;SDS011;46681;47.696;9.140;2023-07-02T08:02:53;21.37;;;14.83;;
60847;SDS011;46681;47.696;9.140;2023-07-02T08:05:29;17.77;;;14.17;;
60847;SDS011;46681;47.696;9.140;2023-07-02T08:07:56;23.40;;;15.33;;
60847;SDS011;46681;47.696;9.140;2023-07-02T08:10:29;19.57;;;15.67;;
60847;SDS011;46681;47.696;9.140;2023-07-02T08:13:07;18.67;;;14.63;;
60847;SDS011;46681;47.696;9.140;2023-07-02T08:15:35;19.37;;;14.17;;
60847;SDS011;46681;47.696;9.140;2023-07-02T08:18:03;19.77;;;15.00;;
60847;SDS011;46681;47.696;9.140;2023-07-02T08:20:31;18.83;;;14.67;;
60847;SDS011;46681;47.696;9.140;2023-07-02T08:23:03;18.93;;;14.80;;
60847;SDS011;46681;47.696;9.140;2023-07-02T08:25:40;24.30;;;16.17;;
60847;SDS011;46681;47.696;9.140;2023-07-02T08:28:18;23.13;;;16.40;;
60847;SDS011;46681;47.696;9.140;2023-07-02T08:31:12;20.93;;;16.33;;
60847;SDS011;46681;47.696;9.140;2023-07-02T08:33:50;21.47;;;16.70;;
60847;SDS011;46681;47.696;9.140;2023-07-02T08:36:15;20.83;;;16.57;;
60847;SDS011;46681;47.696;9.140;2023-07-02T08:39:00;24.93;;;16.37;;
60847;SDS011;46681;47.696;9.140;2023-07-02T08:41:44;21.53;;;16.63;;
60847;SDS011;46681;47.696;9.140;2023-07-02T08:47:23;20.23;;;15.30;;
60847;SDS011;46681;47.696;9.140;2023-07-02T08:50:49;21.87;;;16.33;;
60847;SDS011;46681;47.696;9.140;2023-07-02T08:53:57;21.00;;;15.87;;
60847;SDS011;46681;47.696;9.140;2023-07-02T08:56:29;18.90;;;14.97;;
60847;SDS011;46681;47.696;9.140;2023-07-02T09:02:43;19.97;;;15.77;;
60847;SDS011;46681;47.696;9.140;2023-07-02T09:05:51;20.90;;;16.23;;
60847;SDS011;46681;47.696;9.140;2023-07-02T09:14:22;23.70;;;17.50;;
60847;SDS011;46681;47.696;9.140;2023-07-02T09:29:39;23.10;;;18.10;;
60847;SDS011;46681;47.696;9.140;2023-07-02T09:39:02;26.73;;;17.57;;
60847;SDS011;46681;47.696;9.140;2023-07-02T09:45:30;21.23;;;15.97;;
60847;SDS011;46681;47.696;9.140;2023-07-02T10:28:26;19.90;;;17.03;;
60847;SDS011;46681;47.696;9.140;2023-07-02T10:31:37;21.97;;;17.33;;
60847;SDS011;46681;47.696;9.140;2023-07-02T11:10:08;15.33;;;13.73;;
60847;SDS011;46681;47.696;9.140;2023-07-02T11:19:07;15.00;;;13.33;;
60847;SDS011;46681;47.696;9.140;2023-07-02T11:31:28;14.50;;;13.00;;
60847;SDS011;46681;47.696;9.140;2023-07-02T13:15:11;8.97;;;8.13;;
60847;SDS011;46681;47.696;9.140;2023-07-02T13:45:48;9.20;;;7.63;;
60847;SDS011;46681;47.696;9.140;2023-07-02T14:13:15;8.47;;;7.63;;
60847;SDS011;46681;47.696;9.140;2023-07-02T14:16:01;8.57;;;7.77;;
60847;SDS011;46681;47.696;9.140;2023-07-02T14:31:27;8.63;;;7.57;;
60847;SDS011;46681;47.696;9.140;2023-07-02T15:01:24;7.20;;;6.60;;
60847;SDS011;46681;47.696;9.140;2023-07-02T15:13:37;7.87;;;7.10;;
60847;SDS011;46681;47.696;9.140;2023-07-02T15:16:15;7.10;;;6.40;;
60847;SDS011;46681;47.696;9.140;2023-07-02T15:18:50;7.23;;;6.53;;
60847;SDS011;46681;47.696;9.140;2023-07-02T15:21:22;7.00;;;6.33;;
60847;SDS011;46681;47.696;9.140;2023-07-02T15:24:15;6.77;;;6.13;;
60847;SDS011;46681;47.696;9.140;2023-07-02T15:33:12;6.57;;;5.80;;
60847;SDS011;46681;47.696;9.140;2023-07-02T15:35:54;7.17;;;6.47;;
60847;SDS011;46681;47.696;9.140;2023-07-02T15:44:57;7.33;;;6.63;;
60847;SDS011;46681;47.696;9.140;2023-07-02T15:48:26;7.20;;;6.50;;
60847;SDS011;46681;47.696;9.140;2023-07-02T15:51:16;7.33;;;6.63;;
60847;SDS011;46681;47.696;9.140;2023-07-02T15:53:54;7.37;;;6.60;;
60847;SDS011;46681;47.696;9.140;2023-07-02T16:06:08;7.80;;;7.10;;
60847;SDS011;46681;47.696;9.140;2023-07-02T16:08:55;7.73;;;6.93;;
60847;SDS011;46681;47.696;9.140;2023-07-02T16:11:53;8.03;;;7.30;;
60847;SDS011;46681;47.696;9.140;2023-07-02T16:15:06;7.57;;;6.87;;
60847;SDS011;46681;47.696;9.140;2023-07-02T16:17:52;7.33;;;6.63;;
60847;SDS011;46681;47.696;9.140;2023-07-02T16:20:39;7.93;;;7.13;;
60847;SDS011;46681;47.696;9.140;2023-07-02T16:23:09;8.50;;;7.20;;
60847;SDS011;46681;47.696;9.140;2023-07-02T16:25:53;7.90;;;7.13;;
60847;SDS011;46681;47.696;9.140;2023-07-02T16:34:26;7.90;;;7.10;;
60847;SDS011;46681;47.696;9.140;2023-07-02T16:37:15;7.77;;;6.97;;
60847;SDS011;46681;47.696;9.140;2023-07-02T16:42:48;7.50;;;6.70;;
60847;SDS011;46681;47.696;9.140;2023-07-02T16:45:50;8.00;;;7.20;;
60847;SDS011;46681;47.696;9.140;2023-07-02T16:48:17;7.93;;;7.13;;
60847;SDS011;46681;47.696;9.140;2023-07-02T16:50:43;8.70;;;7.13;;
60847;SDS011;46681;47.696;9.140;2023-07-02T16:53:20;8.27;;;7.37;;
60847;SDS011;46681;47.696;9.140;2023-07-02T16:56:20;7.53;;;6.83;;
60847;SDS011;46681;47.696;9.140;2023-07-02T16:58:55;7.97;;;6.60;;
60847;SDS011;46681;47.696;9.140;2023-07-02T17:01:21;8.07;;;7.27;;
60847;SDS011;46681;47.696;9.140;2023-07-02T17:03:46;7.83;;;6.87;;
60847;SDS011;46681;47.696;9.140;2023-07-02T17:06:30;7.43;;;6.73;;
60847;SDS011;46681;47.696;9.140;2023-07-02T17:11:57;8.07;;;7.37;;
60847;SDS011;46681;47.696;9.140;2023-07-02T17:14:53;8.37;;;6.97;;
60847;SDS011;46681;47.696;9.140;2023-07-02T17:17:27;7.77;;;7.07;;
60847;SDS011;46681;47.696;9.140;2023-07-02T17:19:57;7.97;;;7.27;;
60847;SDS011;46681;47.696;9.140;2023-07-02T17:22:34;8.27;;;7.47;;
60847;SDS011;46681;47.696;9.140;2023-07-02T17:25:09;8.60;;;7.70;;
60847;SDS011;46681;47.696;9.140;2023-07-02T17:27:35;9.27;;;7.80;;
60847;SDS011;46681;47.696;9.140;2023-07-02T17:30:07;8.97;;;7.67;;
60847;SDS011;46681;47.696;9.140;2023-07-02T17:32:47;8.83;;;7.93;;
60847;SDS011;46681;47.696;9.140;2023-07-02T17:35:17;9.43;;;8.07;;
60847;SDS011;46681;47.696;9.140;2023-07-02T17:37:54;9.00;;;8.13;;
60847;SDS011;46681;47.696;9.140;2023-07-02T17:40:28;10.20;;;8.77;;
60847;SDS011;46681;47.696;9.140;2023-07-02T17:43:09;9.73;;;8.73;;
60847;SDS011;46681;47.696;9.140;2023-07-02T17:45:35;10.63;;;9.53;;
60847;SDS011;46681;47.696;9.140;2023-07-02T17:48:04;10.30;;;9.20;;
60847;SDS011;46681;47.696;9.140;2023-07-02T17:50:39;11.33;;;10.23;;
60847;SDS011;46681;47.696;9.140;2023-07-02T17:53:14;10.03;;;8.83;;
60847;SDS011;46681;47.696;9.140;2023-07-02T17:55:57;9.70;;;8.70;;
60847;SDS011;46681;47.696;9.140;2023-07-02T17:58:24;10.73;;;9.60;;
60847;SDS011;46681;47.696;9.140;2023-07-02T18:01:08;10.80;;;9.70;;
60847;SDS011;46681;47.696;9.140;2023-07-02T18:03:43;10.50;;;9.47;;
60847;SDS011;46681;47.696;9.140;2023-07-02T18:06:18;12.53;;;10.13;;
60847;SDS011;46681;47.696;9.140;2023-07-02T18:08:58;12.77;;;11.47;;
60847;SDS011;46681;47.696;9.140;2023-07-02T18:11:27;12.07;;;10.80;;
60847;SDS011;46681;47.696;9.140;2023-07-02T18:14:00;11.53;;;10.33;;
60847;SDS011;46681;47.696;9.140;2023-07-02T18:16:31;12.07;;;9.90;;
60847;SDS011;46681;47.696;9.140;2023-07-02T18:18:57;11.27;;;10.07;;
60847;SDS011;46681;47.696;9.140;2023-07-02T18:21:30;11.77;;;10.43;;
60847;SDS011;46681;47.696;9.140;2023-07-02T18:23:59;11.63;;;10.43;;
60847;SDS011;46681;47.696;9.140;2023-07-02T18:26:46;11.53;;;10.33;;
60847;SDS011;46681;47.696;9.140;2023-07-02T18:29:13;12.13;;;10.87;;
60847;SDS011;46681;47.696;9.140;2023-07-02T18:31:43;12.07;;;10.87;;
60847;SDS011;46681;47.696;9.140;2023-07-02T18:34:14;13.00;;;11.30;;
60847;SDS011;46681;47.696;9.140;2023-07-02T18:36:45;13.80;;;11.10;;
60847;SDS011;46681;47.696;9.140;2023-07-02T18:39:10;12.50;;;11.20;;
60847;SDS011;46681;47.696;9.140;2023-07-02T18:41:42;12.80;;;10.33;;
60847;SDS011;46681;47.696;9.140;2023-07-02T18:44:18;13.47;;;11.43;;
60847;SDS011;46681;47.696;9.140;2023-07-02T18:46:46;13.50;;;11.57;;
60847;SDS011;46681;47.696;9.140;2023-07-02T18:49:23;12.40;;;11.10;;
60847;SDS011;46681;47.696;9.140;2023-07-02T18:51:52;14.13;;;12.17;;
60847;SDS011;46681;47.696;9.140;2023-07-02T18:54:30;14.00;;;12.20;;
60847;SDS011;46681;47.696;9.140;2023-07-02T18:57:06;14.20;;;12.53;;
60847;SDS011;46681;47.696;9.140;2023-07-02T18:59:36;15.00;;;12.00;;
60847;SDS011;46681;47.696;9.140;2023-07-02T19:02:10;13.07;;;11.67;;
60847;SDS011;46681;47.696;9.140;2023-07-02T19:04:51;13.63;;;12.23;;
60847;SDS011;46681;47.696;9.140;2023-07-02T19:07:21;15.47;;;13.23;;
60847;SDS011;46681;47.696;9.140;2023-07-02T19:09:55;14.80;;;12.50;;
60847;SDS011;46681;47.696;9.140;2023-07-02T19:12:30;16.47;;;13.37;;
60847;SDS011;46681;47.696;9.140;2023-07-02T19:14:57;14.07;;;12.57;;
60847;SDS011;46681;47.696;9.140;2023-07-02T19:17:25;14.47;;;12.33;;
60847;SDS011;46681;47.696;9.140;2023-07-02T19:19:54;14.97;;;13.43;;
60847;SDS011;46681;47.696;9.140;2023-07-02T19:22:21;13.87;;;12.17;;
60847;SDS011;46681;47.696;9.140;2023-07-02T19:24:58;14.30;;;12.63;;
60847;SDS011;46681;47.696;9.140;2023-07-02T19:27:29;15.07;;;12.67;;
60847;SDS011;46681;47.696;9.140;2023-07-02T19:30:21;16.17;;;12.97;;
60847;SDS011;46681;47.696;9.140;2023-07-02T19:32:56;15.03;;;13.27;;
60847;SDS011;46681;47.696;9.140;2023-07-02T19:35:25;14.70;;;13.10;;
60847;SDS011;46681;47.696;9.140;2023-07-02T19:37:52;14.60;;;13.00;;
60847;SDS011;46681;47.696;9.140;2023-07-02T19:40:21;14.67;;;12.73;;
60847;SDS011;46681;47.696;9.140;2023-07-02T19:42:48;15.90;;;13.20;;
60847;SDS011;46681;47.696;9.140;2023-07-02T19:45:18;14.43;;;12.93;;
60847;SDS011;46681;47.696;9.140;2023-07-02T19:47:50;16.63;;;13.23;;
60847;SDS011;46681;47.696;9.140;2023-07-02T19:50:22;14.47;;;12.97;;
60847;SDS011;46681;47.696;9.140;2023-07-02T19:52:53;17.30;;;13.03;;
60847;SDS011;46681;47.696;9.140;2023-07-02T19:55:21;14.20;;;12.60;;
60847;SDS011;46681;47.696;9.140;2023-07-02T19:58:16;18.93;;;13.97;;
60847;SDS011;46681;47.696;9.140;2023-07-02T20:00:46;14.53;;;12.50;;
60847;SDS011;46681;47.696;9.140;2023-07-02T20:03:15;14.87;;;13.37;;
60847;SDS011;46681;47.696;9.140;2023-07-02T20:05:46;14.73;;;13.23;;
60847;SDS011;46681;47.696;9.140;2023-07-02T20:08:14;14.53;;;13.03;;
60847;SDS011;46681;47.696;9.140;2023-07-02T20:10:49;15.67;;;12.83;;
60847;SDS011;46681;47.696;9.140;2023-07-02T20:13:16;15.50;;;12.97;;
60847;SDS011;46681;47.696;9.140;2023-07-02T20:15:49;14.50;;;13.00;;
60847;SDS011;46681;47.696;9.140;2023-07-02T20:18:39;16.47;;;13.00;;
60847;SDS011;46681;47.696;9.140;2023-07-02T20:21:06;14.30;;;12.73;;
60847;SDS011;46681;47.696;9.140;2023-07-02T20:23:33;15.83;;;13.50;;
60847;SDS011;46681;47.696;9.140;2023-07-02T20:26:02;14.77;;;12.97;;
60847;SDS011;46681;47.696;9.140;2023-07-02T20:28:39;16.40;;;13.60;;
60847;SDS011;46681;47.696;9.140;2023-07-02T20:31:05;14.27;;;12.63;;
60847;SDS011;46681;47.696;9.140;2023-07-02T20:33:37;16.20;;;13.33;;
60847;SDS011;46681;47.696;9.140;2023-07-02T20:36:12;15.07;;;12.70;;
60847;SDS011;46681;47.696;9.140;2023-07-02T20:38:40;16.37;;;13.60;;
60847;SDS011;46681;47.696;9.140;2023-07-02T20:41:31;14.03;;;12.13;;
60847;SDS011;46681;47.696;9.140;2023-07-02T20:44:01;13.97;;;12.57;;
60847;SDS011;46681;47.696;9.140;2023-07-02T20:46:48;15.00;;;13.40;;
60847;SDS011;46681;47.696;9.140;2023-07-02T20:49:22;14.73;;;12.93;;
60847;SDS011;46681;47.696;9.140;2023-07-02T20:51:51;13.50;;;12.10;;
60847;SDS011;46681;47.696;9.140;2023-07-02T20:54:23;14.07;;;12.27;;
60847;SDS011;46681;47.696;9.140;2023-07-02T20:56:55;14.50;;;11.73;;
60847;SDS011;46681;47.696;9.140;2023-07-02T20:59:39;14.77;;;12.53;;
60847;SDS011;46681;47.696;9.140;2023-07-02T21:02:33;14.30;;;12.27;;
60847;SDS011;46681;47.696;9.140;2023-07-02T21:05:08;13.90;;;12.23;;
60847;SDS011;46681;47.696;9.140;2023-07-02T21:07:35;14.63;;;12.63;;
60847;SDS011;46681;47.696;9.140;2023-07-02T21:10:03;14.57;;;13.07;;